createdAt,value
2018-08-31T00:00:33.368Z,24.76
2018-08-31T00:01:33.274Z,23.33
2018-08-31T00:02:33.181Z,22.28
2018-08-31T00:03:33.087Z,21.34
2018-08-31T00:04:33.007Z,20.96
2018-08-31T00:05:32.896Z,21.23
2018-08-31T00:06:32.904Z,21.33
2018-08-31T00:07:32.711Z,21.23
2018-08-31T00:08:32.613Z,21.33
2018-08-31T00:09:32.536Z,21.04
2018-08-31T00:10:32.432Z,20.66
2018-08-31T00:11:32.330Z,20.37
2018-08-31T00:12:32.236Z,20.66
2018-08-31T00:13:32.239Z,20.76
2018-08-31T00:14:32.063Z,19.71
2018-08-31T00:15:31.956Z,19.23
2018-08-31T00:16:31.857Z,18.76
2018-08-31T00:17:31.761Z,19.15
2018-08-31T00:18:31.671Z,19.71
2018-08-31T00:19:31.591Z,19.81
2018-08-31T00:20:31.599Z,19.90
2018-08-31T00:21:31.386Z,20.47
2018-08-31T00:22:31.290Z,20.00
2018-08-31T00:23:31.201Z,20.09
2018-08-31T00:24:31.118Z,18.95
2018-08-31T00:25:31.008Z,19.04
2018-08-31T00:26:30.912Z,18.76
2018-08-31T00:27:30.916Z,19.13
2018-08-31T00:28:30.726Z,19.04
2018-08-31T00:29:30.648Z,19.23
2018-08-31T00:30:30.537Z,18.76
2018-08-31T00:31:30.440Z,18.66
2018-08-31T00:32:30.345Z,18.85
2018-08-31T00:33:30.253Z,18.76
2018-08-31T00:34:30.273Z,19.23
2018-08-31T00:35:30.062Z,19.13
2018-08-31T00:36:29.965Z,18.76
2018-08-31T00:37:29.874Z,19.71
2018-08-31T00:38:29.778Z,19.81
2018-08-31T00:39:29.697Z,19.79
2018-08-31T00:40:29.716Z,20.46
2018-08-31T00:41:29.500Z,19.98
2018-08-31T00:42:29.400Z,20.08
2018-08-31T00:43:29.306Z,20.17
2018-08-31T00:44:29.226Z,20.37
2018-08-31T00:45:29.114Z,20.17
2018-08-31T00:46:29.021Z,19.89
2018-08-31T00:47:28.924Z,20.08
2018-08-31T00:48:28.830Z,20.17
2018-08-31T00:49:28.741Z,20.08
2018-08-31T00:50:28.659Z,19.89
2018-08-31T00:51:28.546Z,20.46
2018-08-31T00:52:28.452Z,20.08
2018-08-31T00:53:28.360Z,20.08
2018-08-31T00:54:28.265Z,20.65
2018-08-31T00:55:28.186Z,21.03
2018-08-31T00:56:28.073Z,20.46
2018-08-31T00:57:27.980Z,20.46
2018-08-31T00:58:27.890Z,20.17
2018-08-31T00:59:27.795Z,19.79
2018-08-31T01:00:27.714Z,19.51
2018-08-31T01:01:27.604Z,19.22
2018-08-31T01:02:27.512Z,18.94
2018-08-31T01:03:27.413Z,18.27
2018-08-31T01:04:27.320Z,18.27
2018-08-31T01:05:27.240Z,17.41
2018-08-31T01:06:27.133Z,17.32
2018-08-31T01:07:27.039Z,17.32
2018-08-31T01:08:26.939Z,16.94
2018-08-31T01:09:26.847Z,16.94
2018-08-31T01:10:26.769Z,16.27
2018-08-31T01:11:26.654Z,15.80
2018-08-31T01:12:26.559Z,15.32
2018-08-31T01:13:26.466Z,15.05
2018-08-31T01:14:26.373Z,14.37
2018-08-31T01:15:26.292Z,14.37
2018-08-31T01:16:26.180Z,14.37
2018-08-31T01:17:26.088Z,14.37
2018-08-31T01:18:25.991Z,14.47
2018-08-31T01:19:25.896Z,14.37
2018-08-31T01:20:25.817Z,14.56
2018-08-31T01:21:25.707Z,14.56
2018-08-31T01:22:25.613Z,14.28
2018-08-31T01:23:25.521Z,14.47
2018-08-31T01:24:25.425Z,14.28
2018-08-31T01:25:25.347Z,14.47
2018-08-31T01:26:25.236Z,14.28
2018-08-31T01:27:25.139Z,14.28
2018-08-31T01:28:25.046Z,13.80
2018-08-31T01:29:24.952Z,13.70
2018-08-31T01:30:24.874Z,13.89
2018-08-31T01:31:24.759Z,13.51
2018-08-31T01:32:24.667Z,13.23
2018-08-31T01:33:24.572Z,13.32
2018-08-31T01:34:24.480Z,12.65
2018-08-31T01:35:24.402Z,12.75
2018-08-31T01:36:24.286Z,13.04
2018-08-31T01:37:24.196Z,12.56
2018-08-31T01:38:24.100Z,12.46
2018-08-31T01:39:24.007Z,12.37
2018-08-31T01:40:23.927Z,12.09
2018-08-31T01:41:23.839Z,11.80
2018-08-31T01:42:23.719Z,11.61
2018-08-31T01:43:23.628Z,11.80
2018-08-31T01:44:23.535Z,11.14
2018-08-31T01:45:23.459Z,10.75
2018-08-31T01:46:23.346Z,10.28
2018-08-31T01:47:23.252Z,10.28
2018-08-31T01:48:23.162Z,10.19
2018-08-31T01:49:23.068Z,10.28
2018-08-31T01:50:22.986Z,10.19
2018-08-31T01:51:22.871Z,10.57
2018-08-31T01:52:22.774Z,10.09
2018-08-31T01:53:22.682Z,10.28
2018-08-31T01:54:22.588Z,10.09
2018-08-31T01:55:22.509Z,10.28
2018-08-31T01:56:22.399Z,9.61
2018-08-31T01:57:22.304Z,9.71
2018-08-31T01:58:22.213Z,9.61
2018-08-31T01:59:22.117Z,10.00
2018-08-31T02:00:22.043Z,9.71
2018-08-31T02:01:21.931Z,9.71
2018-08-31T02:02:21.835Z,10.28
2018-08-31T02:03:21.738Z,10.08
2018-08-31T02:04:21.647Z,10.08
2018-08-31T02:05:21.568Z,10.09
2018-08-31T02:06:21.458Z,9.80
2018-08-31T02:07:21.361Z,10.38
2018-08-31T02:08:21.265Z,9.89
2018-08-31T02:09:21.196Z,9.99
2018-08-31T02:10:21.097Z,9.14
2018-08-31T02:11:20.987Z,9.42
2018-08-31T02:12:20.891Z,9.42
2018-08-31T02:13:20.796Z,9.52
2018-08-31T02:14:20.700Z,9.70
2018-08-31T02:15:20.622Z,9.14
2018-08-31T02:16:20.514Z,9.42
2018-08-31T02:17:20.419Z,9.14
2018-08-31T02:18:20.327Z,8.66
2018-08-31T02:19:20.231Z,8.47
2018-08-31T02:20:20.153Z,8.37
2018-08-31T02:21:20.044Z,8.00
2018-08-31T02:22:19.948Z,7.52
2018-08-31T02:23:19.851Z,7.71
2018-08-31T02:24:19.760Z,7.42
2018-08-31T02:25:19.684Z,7.23
2018-08-31T02:26:19.578Z,7.04
2018-08-31T02:27:19.761Z,6.95
2018-08-31T02:28:19.382Z,6.95
2018-08-31T02:29:19.284Z,6.76
2018-08-31T02:30:19.192Z,6.47
2018-08-31T02:31:19.111Z,5.99
2018-08-31T02:32:19.003Z,6.09
2018-08-31T02:33:19.011Z,6.19
2018-08-31T02:34:18.815Z,6.19
2018-08-31T02:35:18.735Z,5.99
2018-08-31T02:36:18.625Z,5.90
2018-08-31T02:37:18.528Z,5.62
2018-08-31T02:38:18.434Z,5.43
2018-08-31T02:39:18.408Z,5.52
2018-08-31T02:40:18.353Z,5.43
2018-08-31T02:41:18.168Z,5.52
2018-08-31T02:42:18.109Z,5.33
2018-08-31T02:43:17.961Z,4.85
2018-08-31T02:44:17.870Z,4.95
2018-08-31T02:45:17.777Z,5.43
2018-08-31T02:46:17.693Z,5.14
2018-08-31T02:47:17.685Z,5.14
2018-08-31T02:48:17.488Z,5.04
2018-08-31T02:49:17.401Z,4.85
2018-08-31T02:50:17.301Z,5.14
2018-08-31T02:51:17.225Z,5.14
2018-08-31T02:52:17.108Z,5.42
2018-08-31T02:53:17.021Z,5.14
2018-08-31T02:54:17.026Z,5.14
2018-08-31T02:55:16.827Z,5.04
2018-08-31T02:56:16.747Z,4.66
2018-08-31T02:57:16.637Z,4.66
2018-08-31T02:58:16.541Z,4.75
2018-08-31T02:59:16.446Z,4.57
2018-08-31T03:00:16.353Z,4.85
2018-08-31T03:01:16.377Z,4.75
2018-08-31T03:02:16.173Z,4.66
2018-08-31T03:03:16.070Z,4.66
2018-08-31T03:04:15.978Z,4.66
2018-08-31T03:05:15.883Z,4.66
2018-08-31T03:06:15.811Z,4.75
2018-08-31T03:07:15.691Z,4.85
2018-08-31T03:08:15.596Z,4.85
2018-08-31T03:09:15.507Z,4.57
2018-08-31T03:10:15.407Z,4.94
2018-08-31T03:11:15.330Z,5.14
2018-08-31T03:12:15.230Z,5.23
2018-08-31T03:13:15.128Z,5.14
2018-08-31T03:14:15.031Z,5.14
2018-08-31T03:15:15.037Z,5.04
2018-08-31T03:16:14.857Z,5.04
2018-08-31T03:17:14.744Z,5.14
2018-08-31T03:18:14.651Z,5.23
2018-08-31T03:19:14.558Z,5.23
2018-08-31T03:20:14.465Z,5.23
2018-08-31T03:21:14.483Z,5.23
2018-08-31T03:22:14.389Z,5.23
2018-08-31T03:23:14.180Z,5.14
2018-08-31T03:24:14.083Z,5.23
2018-08-31T03:25:13.990Z,4.94
2018-08-31T03:26:13.894Z,4.75
2018-08-31T03:27:13.818Z,4.66
2018-08-31T03:28:13.705Z,4.57
2018-08-31T03:29:13.611Z,5.04
2018-08-31T03:30:13.520Z,4.85
2018-08-31T03:31:13.422Z,4.75
2018-08-31T03:32:13.343Z,4.75
2018-08-31T03:33:13.230Z,4.94
2018-08-31T03:34:13.141Z,4.94
2018-08-31T03:35:13.171Z,4.57
2018-08-31T03:36:12.950Z,4.47
2018-08-31T03:37:12.871Z,4.85
2018-08-31T03:38:12.760Z,4.85
2018-08-31T03:39:12.666Z,4.66
2018-08-31T03:40:12.572Z,4.66
2018-08-31T03:41:12.477Z,4.75
2018-08-31T03:42:12.399Z,4.66
2018-08-31T03:43:12.288Z,4.94
2018-08-31T03:44:12.192Z,4.75
2018-08-31T03:45:12.101Z,4.85
2018-08-31T03:46:12.008Z,4.75
2018-08-31T03:47:11.924Z,4.85
2018-08-31T03:48:11.818Z,4.75
2018-08-31T03:49:11.721Z,4.75
2018-08-31T03:50:11.625Z,4.66
2018-08-31T03:51:11.530Z,4.75
2018-08-31T03:52:11.454Z,5.04
2018-08-31T03:53:11.340Z,5.04
2018-08-31T03:54:11.246Z,5.14
2018-08-31T03:55:11.153Z,4.94
2018-08-31T03:56:11.063Z,4.66
2018-08-31T03:57:10.981Z,4.66
2018-08-31T03:58:10.867Z,4.47
2018-08-31T03:59:10.773Z,4.57
2018-08-31T04:00:10.678Z,4.66
2018-08-31T04:01:10.584Z,4.75
2018-08-31T04:02:10.506Z,4.94
2018-08-31T04:03:10.395Z,4.85
2018-08-31T04:04:10.299Z,4.66
2018-08-31T04:05:10.211Z,4.94
2018-08-31T04:06:10.117Z,4.57
2018-08-31T04:07:10.036Z,4.75
2018-08-31T04:08:09.925Z,4.75
2018-08-31T04:09:09.828Z,4.75
2018-08-31T04:10:09.734Z,4.94
2018-08-31T04:11:09.639Z,4.94
2018-08-31T04:12:09.560Z,4.75
2018-08-31T04:13:09.452Z,4.85
2018-08-31T04:14:09.356Z,4.85
2018-08-31T04:15:09.386Z,4.85
2018-08-31T04:16:09.166Z,4.66
2018-08-31T04:17:09.090Z,4.66
2018-08-31T04:18:08.981Z,5.04
2018-08-31T04:19:08.881Z,4.76
2018-08-31T04:20:08.792Z,4.66
2018-08-31T04:21:08.694Z,4.66
2018-08-31T04:22:08.620Z,5.14
2018-08-31T04:23:08.523Z,5.04
2018-08-31T04:24:08.417Z,4.85
2018-08-31T04:25:08.324Z,4.85
2018-08-31T04:26:08.227Z,4.75
2018-08-31T04:27:08.133Z,4.76
2018-08-31T04:28:08.052Z,4.75
2018-08-31T04:29:07.938Z,4.75
2018-08-31T04:30:07.844Z,4.66
2018-08-31T04:31:07.748Z,4.85
2018-08-31T04:32:07.662Z,4.66
2018-08-31T04:33:07.578Z,5.14
2018-08-31T04:34:07.499Z,5.04
2018-08-31T04:35:07.372Z,5.23
2018-08-31T04:36:07.281Z,5.14
2018-08-31T04:37:07.186Z,5.23
2018-08-31T04:38:07.104Z,4.75
2018-08-31T04:39:06.998Z,4.94
2018-08-31T04:40:06.903Z,5.42
2018-08-31T04:41:06.809Z,4.94
2018-08-31T04:42:06.714Z,5.04
2018-08-31T04:43:06.635Z,4.94
2018-08-31T04:44:06.521Z,5.14
2018-08-31T04:45:06.429Z,4.95
2018-08-31T04:46:06.334Z,5.24
2018-08-31T04:47:06.240Z,5.04
2018-08-31T04:48:06.164Z,5.04
2018-08-31T04:49:06.049Z,5.33
2018-08-31T04:50:05.957Z,4.95
2018-08-31T04:51:05.860Z,5.04
2018-08-31T04:52:05.767Z,5.14
2018-08-31T04:53:05.693Z,4.95
2018-08-31T04:54:05.578Z,5.24
2018-08-31T04:55:05.487Z,4.95
2018-08-31T04:56:05.391Z,4.95
2018-08-31T04:57:05.299Z,4.76
2018-08-31T04:58:05.219Z,4.95
2018-08-31T04:59:05.216Z,5.04
2018-08-31T05:00:05.012Z,4.85
2018-08-31T05:01:04.922Z,4.76
2018-08-31T05:02:04.825Z,5.24
2018-08-31T05:03:04.749Z,5.14
2018-08-31T05:04:04.638Z,5.05
2018-08-31T05:05:04.543Z,5.05
2018-08-31T05:06:04.553Z,4.95
2018-08-31T05:07:04.352Z,4.57
2018-08-31T05:08:04.277Z,4.66
2018-08-31T05:09:04.170Z,4.86
2018-08-31T05:10:04.070Z,4.95
2018-08-31T05:11:03.993Z,4.86
2018-08-31T05:12:03.885Z,4.86
2018-08-31T05:13:03.907Z,4.76
2018-08-31T05:14:03.695Z,4.67
2018-08-31T05:15:03.604Z,4.48
2018-08-31T05:16:03.540Z,4.67
2018-08-31T05:17:03.418Z,4.96
2018-08-31T05:18:03.337Z,5.15
2018-08-31T05:19:03.230Z,5.24
2018-08-31T05:20:03.236Z,5.24
2018-08-31T05:21:03.036Z,5.33
2018-08-31T05:22:02.943Z,5.72
2018-08-31T05:23:02.933Z,5.43
2018-08-31T05:24:02.753Z,5.43
2018-08-31T05:25:02.664Z,6.20
2018-08-31T05:26:02.570Z,6.29
2018-08-31T05:27:02.577Z,6.86
2018-08-31T05:28:02.397Z,7.90
2018-08-31T05:29:02.289Z,8.00
2018-08-31T05:30:02.201Z,8.67
2018-08-31T05:31:02.098Z,9.14
2018-08-31T05:32:02.013Z,10.00
2018-08-31T05:33:01.927Z,9.62
2018-08-31T05:34:01.935Z,10.39
2018-08-31T05:35:01.727Z,10.76
2018-08-31T05:36:01.631Z,11.15
2018-08-31T05:37:01.542Z,11.34
2018-08-31T05:38:01.461Z,11.53
2018-08-31T05:39:01.351Z,12.20
2018-08-31T05:40:01.298Z,12.20
2018-08-31T05:41:01.261Z,12.39
2018-08-31T05:42:01.069Z,12.87
2018-08-31T05:43:00.993Z,13.53
2018-08-31T05:44:00.882Z,13.15
2018-08-31T05:45:00.789Z,13.15
2018-08-31T05:46:00.696Z,13.63
2018-08-31T05:47:00.603Z,14.29
2018-08-31T05:48:00.628Z,14.96
2018-08-31T05:49:00.416Z,15.73
2018-08-31T05:50:00.322Z,16.30
2018-08-31T05:51:00.229Z,17.35
2018-08-31T05:52:00.138Z,18.68
2018-08-31T05:53:00.060Z,19.26
2018-08-31T05:54:00.078Z,19.06
2018-08-31T05:54:59.856Z,20.79
2018-08-31T05:55:59.763Z,22.13
2018-08-31T05:56:59.672Z,22.89
2018-08-31T05:57:59.598Z,23.74
2018-08-31T05:58:59.484Z,24.41
2018-08-31T05:59:59.390Z,24.89
2018-08-31T06:00:59.299Z,25.46
2018-08-31T06:01:59.290Z,25.74
2018-08-31T06:02:59.127Z,25.74
2018-08-31T06:03:59.018Z,26.22
2018-08-31T06:04:58.927Z,27.27
2018-08-31T06:05:58.836Z,28.70
2018-08-31T06:06:58.741Z,29.37
2018-08-31T06:07:58.663Z,30.13
2018-08-31T06:08:58.554Z,32.52
2018-08-31T06:09:58.461Z,35.00
2018-08-31T06:10:58.369Z,35.57
2018-08-31T06:11:58.335Z,35.66
2018-08-31T06:12:58.186Z,35.76
2018-08-31T06:13:58.108Z,36.71
2018-08-31T06:14:57.995Z,37.76
2018-08-31T06:15:57.909Z,38.71
2018-08-31T06:16:57.811Z,41.98
2018-08-31T06:17:57.721Z,44.17
2018-08-31T06:18:57.646Z,45.70
2018-08-31T06:19:57.538Z,46.94
2018-08-31T06:20:57.454Z,49.04
2018-08-31T06:21:57.347Z,51.21
2018-08-31T06:22:57.260Z,52.67
2018-08-31T06:23:57.180Z,53.24
2018-08-31T06:24:57.074Z,53.24
2018-08-31T06:25:56.981Z,53.05
2018-08-31T06:26:56.893Z,53.33
2018-08-31T06:27:56.799Z,53.91
2018-08-31T06:28:56.720Z,53.81
2018-08-31T06:29:56.609Z,53.53
2018-08-31T06:30:56.515Z,54.96
2018-08-31T06:31:56.425Z,55.91
2018-08-31T06:32:56.332Z,57.53
2018-08-31T06:33:56.336Z,59.06
2018-08-31T06:34:56.178Z,58.39
2018-08-31T06:35:56.068Z,58.77
2018-08-31T06:36:55.967Z,59.47
2018-08-31T06:37:55.873Z,60.14
2018-08-31T06:38:55.817Z,60.61
2018-08-31T06:39:55.690Z,62.05
2018-08-31T06:40:55.596Z,63.29
2018-08-31T06:41:55.505Z,65.52
2018-08-31T06:42:55.411Z,67.62
2018-08-31T06:43:55.340Z,69.62
2018-08-31T06:44:55.230Z,72.14
2018-08-31T06:45:55.140Z,75.87
2018-08-31T06:46:55.048Z,77.08
2018-08-31T06:47:54.954Z,76.98
2018-08-31T06:48:54.880Z,77.26
2018-08-31T06:49:54.771Z,78.03
2018-08-31T06:50:54.679Z,77.74
2018-08-31T06:51:54.590Z,76.98
2018-08-31T06:52:54.502Z,77.94
2018-08-31T06:53:54.425Z,78.31
2018-08-31T06:54:54.315Z,77.74
2018-08-31T06:55:54.226Z,77.94
2018-08-31T06:56:54.238Z,77.17
2018-08-31T06:57:54.046Z,77.74
2018-08-31T06:58:54.018Z,78.41
2018-08-31T06:59:53.864Z,78.22
2018-08-31T07:00:53.770Z,78.03
2018-08-31T07:01:53.681Z,78.13
2018-08-31T07:02:53.590Z,78.60
2018-08-31T07:03:53.581Z,78.60
2018-08-31T07:04:53.409Z,78.47
2018-08-31T07:05:53.316Z,78.03
2018-08-31T07:06:53.224Z,78.03
2018-08-31T07:07:53.135Z,78.47
2018-08-31T07:08:53.057Z,78.99
2018-08-31T07:09:52.951Z,78.47
2018-08-31T07:10:52.957Z,79.14
2018-08-31T07:11:52.769Z,78.47
2018-08-31T07:12:52.679Z,78.37
2018-08-31T07:13:52.614Z,78.47
2018-08-31T07:14:52.495Z,79.17
2018-08-31T07:15:52.404Z,78.79
2018-08-31T07:16:52.314Z,78.99
2018-08-31T07:17:52.318Z,79.36
2018-08-31T07:18:52.149Z,79.94
2018-08-31T07:19:52.081Z,80.22
2018-08-31T07:20:51.948Z,79.27
2018-08-31T07:21:51.856Z,79.85
2018-08-31T07:22:51.770Z,80.99
2018-08-31T07:23:51.694Z,80.55
2018-08-31T07:24:51.690Z,82.08
2018-08-31T07:25:51.495Z,82.46
2018-08-31T07:26:51.423Z,82.84
2018-08-31T07:27:51.318Z,83.13
2018-08-31T07:28:51.239Z,84.09
2018-08-31T07:29:51.129Z,84.95
2018-08-31T07:30:51.047Z,84.95
2018-08-31T07:31:50.948Z,84.85
2018-08-31T07:32:50.855Z,84.66
2018-08-31T07:33:50.843Z,84.85
2018-08-31T07:34:50.681Z,84.76
2018-08-31T07:35:50.679Z,84.52
2018-08-31T07:36:50.495Z,84.56
2018-08-31T07:37:50.403Z,84.76
2018-08-31T07:38:50.328Z,84.85
2018-08-31T07:39:50.223Z,85.14
2018-08-31T07:40:50.133Z,85.42
2018-08-31T07:41:50.037Z,84.85
2018-08-31T07:42:49.947Z,85.71
2018-08-31T07:43:49.871Z,84.95
2018-08-31T07:44:49.765Z,85.62
2018-08-31T07:45:49.675Z,85.05
2018-08-31T07:46:49.587Z,84.95
2018-08-31T07:47:49.563Z,84.66
2018-08-31T07:48:49.421Z,85.42
2018-08-31T07:49:49.316Z,85.24
2018-08-31T07:50:49.220Z,85.47
2018-08-31T07:51:49.131Z,86.00
2018-08-31T07:52:49.037Z,85.42
2018-08-31T07:53:48.983Z,85.05
2018-08-31T07:54:48.856Z,85.42
2018-08-31T07:55:48.767Z,85.28
2018-08-31T07:56:48.685Z,85.18
2018-08-31T07:57:48.583Z,85.28
2018-08-31T07:58:48.514Z,89.34
2018-08-31T07:59:48.402Z,95.03
2018-08-31T08:00:48.617Z,99.99
2018-08-31T08:01:48.221Z,99.99
2018-08-31T08:02:48.131Z,99.99
2018-08-31T08:03:48.047Z,99.99
2018-08-31T08:04:47.968Z,99.99
2018-08-31T08:05:47.862Z,99.99
2018-08-31T08:06:47.772Z,99.99
2018-08-31T08:07:47.783Z,99.99
2018-08-31T08:08:47.596Z,99.99
2018-08-31T08:09:47.523Z,99.99
2018-08-31T08:10:47.412Z,99.99
2018-08-31T08:11:47.324Z,99.99
2018-08-31T08:12:47.234Z,99.99
2018-08-31T08:13:47.147Z,99.99
2018-08-31T08:14:47.187Z,99.99
2018-08-31T08:15:46.968Z,99.99
2018-08-31T08:16:46.878Z,99.99
2018-08-31T08:17:46.816Z,99.99
2018-08-31T08:18:46.702Z,99.99
2018-08-31T08:19:46.625Z,99.99
2018-08-31T08:20:46.617Z,99.99
2018-08-31T08:21:46.432Z,99.99
2018-08-31T08:22:46.343Z,99.99
2018-08-31T08:23:46.256Z,99.99
2018-08-31T08:24:46.184Z,99.99
2018-08-31T08:25:46.083Z,99.99
2018-08-31T08:26:46.000Z,99.99
2018-08-31T08:27:45.895Z,99.99
2018-08-31T08:28:45.906Z,99.99
2018-08-31T08:29:45.740Z,99.99
2018-08-31T08:30:45.629Z,99.99
2018-08-31T08:31:45.542Z,99.99
2018-08-31T08:32:45.452Z,99.99
2018-08-31T08:33:45.363Z,99.99
2018-08-31T08:34:45.291Z,99.99
2018-08-31T08:35:45.192Z,99.99
2018-08-31T08:36:45.098Z,99.99
2018-08-31T08:37:45.017Z,99.99
2018-08-31T08:38:44.919Z,99.99
2018-08-31T08:39:44.843Z,99.99
2018-08-31T08:40:44.738Z,99.99
2018-08-31T08:41:44.650Z,99.99
2018-08-31T08:42:44.571Z,99.99
2018-08-31T08:43:44.474Z,99.99
2018-08-31T08:44:44.402Z,99.99
2018-08-31T08:45:44.298Z,99.99
2018-08-31T08:46:44.207Z,99.99
2018-08-31T08:47:44.117Z,99.99
2018-08-31T08:48:44.177Z,99.99
2018-08-31T08:49:43.962Z,99.99
2018-08-31T08:50:43.856Z,99.99
2018-08-31T08:51:43.766Z,99.99
2018-08-31T08:52:43.677Z,99.99
2018-08-31T08:53:43.591Z,99.99
2018-08-31T08:54:43.524Z,99.99
2018-08-31T08:55:43.411Z,99.99
2018-08-31T08:56:43.328Z,99.99
2018-08-31T08:57:43.239Z,99.99
2018-08-31T08:58:43.155Z,99.99
2018-08-31T08:59:43.073Z,99.99
2018-08-31T09:00:42.965Z,99.99
2018-08-31T09:01:42.888Z,99.99
2018-08-31T09:02:42.793Z,99.99
2018-08-31T09:03:42.704Z,99.99
2018-08-31T09:04:42.634Z,99.99
2018-08-31T09:05:42.663Z,99.99
2018-08-31T09:06:42.441Z,99.99
2018-08-31T09:07:42.354Z,99.99
2018-08-31T09:08:42.263Z,99.99
2018-08-31T09:09:42.195Z,99.99
2018-08-31T09:10:42.090Z,99.99
2018-08-31T09:11:42.027Z,99.99
2018-08-31T09:12:41.912Z,99.99
2018-08-31T09:13:41.827Z,99.99
2018-08-31T09:14:41.754Z,99.99
2018-08-31T09:15:41.651Z,99.99
2018-08-31T09:16:41.564Z,99.99
2018-08-31T09:17:41.474Z,99.99
2018-08-31T09:18:41.388Z,99.99
2018-08-31T09:19:41.319Z,99.99
2018-08-31T09:20:41.214Z,99.99
2018-08-31T09:21:41.126Z,99.99
2018-08-31T09:22:41.042Z,99.99
2018-08-31T09:23:40.954Z,99.99
2018-08-31T09:24:40.955Z,99.99
2018-08-31T09:25:40.777Z,99.99
2018-08-31T09:26:40.689Z,99.99
2018-08-31T09:27:40.605Z,99.99
2018-08-31T09:28:40.517Z,99.99
2018-08-31T09:29:40.451Z,99.99
2018-08-31T09:30:40.365Z,99.99
2018-08-31T09:31:40.259Z,99.99
2018-08-31T09:32:40.239Z,99.99
2018-08-31T09:33:40.081Z,99.99
2018-08-31T09:34:39.997Z,99.99
2018-08-31T09:35:39.925Z,99.99
2018-08-31T09:36:39.821Z,99.99
2018-08-31T09:37:39.743Z,99.69
2018-08-31T09:38:39.652Z,99.73
2018-08-31T09:39:39.583Z,99.99
2018-08-31T09:40:39.481Z,99.99
2018-08-31T09:41:39.397Z,99.99
2018-08-31T09:42:39.306Z,99.99
2018-08-31T09:43:39.221Z,99.99
2018-08-31T09:44:39.254Z,99.99
2018-08-31T09:45:39.064Z,99.99
2018-08-31T09:46:38.961Z,99.99
2018-08-31T09:47:38.876Z,99.30
2018-08-31T09:48:38.788Z,98.68
2018-08-31T09:49:38.730Z,97.52
2018-08-31T09:50:38.633Z,95.69
2018-08-31T09:51:38.630Z,96.17
2018-08-31T09:52:38.447Z,95.84
2018-08-31T09:53:38.358Z,95.89
2018-08-31T09:54:38.277Z,95.21
2018-08-31T09:55:38.205Z,96.27
2018-08-31T09:56:38.105Z,95.40
2018-08-31T09:57:38.019Z,95.31
2018-08-31T09:58:38.039Z,94.78
2018-08-31T09:59:37.849Z,95.11
2018-08-31T10:00:37.776Z,90.72
2018-08-31T10:01:37.674Z,91.20
2018-08-31T10:02:37.595Z,90.38
2018-08-31T10:03:37.519Z,89.51
2018-08-31T10:04:37.422Z,88.60
2018-08-31T10:05:37.459Z,87.49
2018-08-31T10:06:37.251Z,86.43
2018-08-31T10:07:37.165Z,88.41
2018-08-31T10:08:37.082Z,90.58
2018-08-31T10:09:36.997Z,90.72
2018-08-31T10:10:36.944Z,89.81
2018-08-31T10:11:36.829Z,89.28
2018-08-31T10:12:36.846Z,87.30
2018-08-31T10:13:36.661Z,85.27
2018-08-31T10:14:36.574Z,85.12
2018-08-31T10:15:36.511Z,84.79
2018-08-31T10:16:36.409Z,86.00
2018-08-31T10:17:36.325Z,83.63
2018-08-31T10:18:36.260Z,82.51
2018-08-31T10:19:36.256Z,80.97
2018-08-31T10:20:36.092Z,81.07
2018-08-31T10:21:35.991Z,80.10
2018-08-31T10:22:35.909Z,81.05
2018-08-31T10:23:35.822Z,80.05
2018-08-31T10:24:35.738Z,80.38
2018-08-31T10:25:35.672Z,80.38
2018-08-31T10:26:35.685Z,78.73
2018-08-31T10:27:35.488Z,80.32
2018-08-31T10:28:35.407Z,78.38
2018-08-31T10:29:35.324Z,76.35
2018-08-31T10:30:35.256Z,76.97
2018-08-31T10:31:35.161Z,74.59
2018-08-31T10:32:35.078Z,73.53
2018-08-31T10:33:35.091Z,72.56
2018-08-31T10:34:34.908Z,72.98
2018-08-31T10:35:34.842Z,72.14
2018-08-31T10:36:34.746Z,73.88
2018-08-31T10:37:34.663Z,75.06
2018-08-31T10:38:34.580Z,76.12
2018-08-31T10:39:34.498Z,79.06
2018-08-31T10:40:34.536Z,79.80
2018-08-31T10:41:34.334Z,80.18
2018-08-31T10:42:34.251Z,81.20
2018-08-31T10:43:34.170Z,84.50
2018-08-31T10:44:34.085Z,86.38
2018-08-31T10:45:34.025Z,85.08
2018-08-31T10:46:34.006Z,84.75
2018-08-31T10:47:33.940Z,84.70
2018-08-31T10:48:33.759Z,85.63
2018-08-31T10:49:33.676Z,87.12
2018-08-31T10:50:33.613Z,89.29
2018-08-31T10:51:33.512Z,89.58
2018-08-31T10:52:33.435Z,85.77
2018-08-31T10:53:33.349Z,84.07
2018-08-31T10:54:33.360Z,82.82
2018-08-31T10:55:33.194Z,84.55
2018-08-31T10:56:33.099Z,81.57
2018-08-31T10:57:33.011Z,81.27
2018-08-31T10:58:32.931Z,84.17
2018-08-31T10:59:32.843Z,84.12
2018-08-31T11:00:32.796Z,84.90
2018-08-31T11:01:32.794Z,86.07
2018-08-31T11:02:32.594Z,86.65
2018-08-31T11:03:32.563Z,88.67
2018-08-31T11:04:32.432Z,90.21
2018-08-31T11:05:32.361Z,90.55
2018-08-31T11:06:32.260Z,90.26
2018-08-31T11:07:32.179Z,90.94
2018-08-31T11:08:32.092Z,91.27
2018-08-31T11:09:32.009Z,87.27
2018-08-31T11:10:31.945Z,86.16
2018-08-31T11:11:31.842Z,85.97
2018-08-31T11:12:31.763Z,86.65
2018-08-31T11:13:31.670Z,87.99
2018-08-31T11:14:31.585Z,89.43
2018-08-31T11:15:31.520Z,87.80
2018-08-31T11:16:31.413Z,88.47
2018-08-31T11:17:31.328Z,86.69
2018-08-31T11:18:31.244Z,89.05
2018-08-31T11:19:31.162Z,89.24
2018-08-31T11:20:31.091Z,89.24
2018-08-31T11:21:30.995Z,89.43
2018-08-31T11:22:30.905Z,90.35
2018-08-31T11:23:30.821Z,90.55
2018-08-31T11:24:30.734Z,91.07
2018-08-31T11:25:30.667Z,89.92
2018-08-31T11:26:30.564Z,90.20
2018-08-31T11:27:30.478Z,90.64
2018-08-31T11:28:30.398Z,89.20
2018-08-31T11:29:30.307Z,90.45
2018-08-31T11:30:30.224Z,89.29
2018-08-31T11:31:30.155Z,88.28
2018-08-31T11:32:30.050Z,89.29
2018-08-31T11:33:29.967Z,88.95
2018-08-31T11:34:29.884Z,87.22
2018-08-31T11:35:29.798Z,87.70
2018-08-31T11:36:29.729Z,87.26
2018-08-31T11:37:29.628Z,85.87
2018-08-31T11:38:29.540Z,83.66
2018-08-31T11:39:29.496Z,86.21
2018-08-31T11:40:29.371Z,83.41
2018-08-31T11:41:29.302Z,82.20
2018-08-31T11:42:29.200Z,83.07
2018-08-31T11:43:29.165Z,81.18
2018-08-31T11:44:29.028Z,80.06
2018-08-31T11:45:28.947Z,81.51
2018-08-31T11:46:28.874Z,78.52
2018-08-31T11:47:28.770Z,78.67
2018-08-31T11:48:28.684Z,78.96
2018-08-31T11:49:28.601Z,80.18
2018-08-31T11:50:28.517Z,82.16
2018-08-31T11:51:28.446Z,83.51
2018-08-31T11:52:28.348Z,86.79
2018-08-31T11:53:28.263Z,88.33
2018-08-31T11:54:28.172Z,86.60
2018-08-31T11:55:28.092Z,89.06
2018-08-31T11:56:28.025Z,89.92
2018-08-31T11:57:27.922Z,90.12
2018-08-31T11:58:27.837Z,90.02
2018-08-31T11:59:27.751Z,89.40
2018-08-31T12:00:27.662Z,90.36
2018-08-31T12:01:27.733Z,89.11
2018-08-31T12:02:27.490Z,90.89
2018-08-31T12:03:27.405Z,91.08
2018-08-31T12:04:27.320Z,90.36
2018-08-31T12:05:27.234Z,89.64
2018-08-31T12:06:27.165Z,89.11
2018-08-31T12:07:27.061Z,89.30
2018-08-31T12:08:26.975Z,90.07
2018-08-31T12:09:26.890Z,91.03
2018-08-31T12:10:26.802Z,90.55
2018-08-31T12:11:26.733Z,89.30
2018-08-31T12:12:26.635Z,88.44
2018-08-31T12:13:26.544Z,89.30
2018-08-31T12:14:26.456Z,89.78
2018-08-31T12:15:26.369Z,90.84
2018-08-31T12:16:26.301Z,91.13
2018-08-31T12:17:26.197Z,90.41
2018-08-31T12:18:26.112Z,90.21
2018-08-31T12:19:26.027Z,90.16
2018-08-31T12:20:25.938Z,88.33
2018-08-31T12:21:25.867Z,89.92
2018-08-31T12:22:25.765Z,89.92
2018-08-31T12:23:25.679Z,90.26
2018-08-31T12:24:25.688Z,87.46
2018-08-31T12:25:25.504Z,88.53
2018-08-31T12:26:25.437Z,87.99
2018-08-31T12:27:25.344Z,87.90
2018-08-31T12:28:25.246Z,87.22
2018-08-31T12:29:25.161Z,87.80
2018-08-31T12:30:25.072Z,88.57
2018-08-31T12:31:25.108Z,86.74
2018-08-31T12:32:24.900Z,86.99
2018-08-31T12:33:24.814Z,88.71
2018-08-31T12:34:24.735Z,89.10
2018-08-31T12:35:24.641Z,89.44
2018-08-31T12:36:24.568Z,90.02
2018-08-31T12:37:24.470Z,90.02
2018-08-31T12:38:24.479Z,89.15
2018-08-31T12:39:24.300Z,89.98
2018-08-31T12:40:24.212Z,89.21
2018-08-31T12:41:24.138Z,89.83
2018-08-31T12:42:24.038Z,91.13
2018-08-31T12:43:23.949Z,91.08
2018-08-31T12:44:23.871Z,91.75
2018-08-31T12:45:23.885Z,90.12
2018-08-31T12:46:23.706Z,89.59
2018-08-31T12:47:23.601Z,91.80
2018-08-31T12:48:23.514Z,92.33
2018-08-31T12:49:23.430Z,92.05
2018-08-31T12:50:23.341Z,92.72
2018-08-31T12:51:23.271Z,93.58
2018-08-31T12:52:23.283Z,92.91
2018-08-31T12:53:23.082Z,93.96
2018-08-31T12:54:22.992Z,93.58
2018-08-31T12:55:22.906Z,90.99
2018-08-31T12:56:22.836Z,91.95
2018-08-31T12:57:22.736Z,92.91
2018-08-31T12:58:22.642Z,93.68